sensor_id;sensor_type;location;lat;lon;timestamp;P1;durP1;ratioP1;P2;durP2;ratioP2
31680;SDS011;18281;51.364;9.566;2023-04-06T00:01:24;11.70;;;3.83;;
31680;SDS011;18281;51.364;9.566;2023-04-06T00:03:49;7.13;;;4.07;;
31680;SDS011;18281;51.364;9.566;2023-04-06T00:06:15;5.88;;;3.95;;
31680;SDS011;18281;51.364;9.566;2023-04-06T00:08:40;5.82;;;4.15;;
31680;SDS011;18281;51.364;9.566;2023-04-06T00:11:06;7.38;;;3.72;;
31680;SDS011;18281;51.364;9.566;2023-04-06T00:13:31;7.63;;;3.88;;
31680;SDS011;18281;51.364;9.566;2023-04-06T00:15:57;4.80;;;4.00;;
31680;SDS011;18281;51.364;9.566;2023-04-06T00:18:23;6.18;;;3.83;;
31680;SDS011;18281;51.364;9.566;2023-04-06T00:20:49;5.25;;;4.32;;
31680;SDS011;18281;51.364;9.566;2023-04-06T00:23:15;4.43;;;3.67;;
31680;SDS011;18281;51.364;9.566;2023-04-06T00:25:41;5.40;;;4.00;;
31680;SDS011;18281;51.364;9.566;2023-04-06T00:28:07;6.50;;;3.85;;
31680;SDS011;18281;51.364;9.566;2023-04-06T00:30:32;7.45;;;4.07;;
31680;SDS011;18281;51.364;9.566;2023-04-06T00:32:57;4.95;;;3.45;;
31680;SDS011;18281;51.364;9.566;2023-04-06T00:35:23;7.45;;;4.10;;
31680;SDS011;18281;51.364;9.566;2023-04-06T00:37:48;5.13;;;3.80;;
31680;SDS011;18281;51.364;9.566;2023-04-06T00:40:14;7.68;;;3.97;;
31680;SDS011;18281;51.364;9.566;2023-04-06T00:42:40;7.82;;;4.43;;
31680;SDS011;18281;51.364;9.566;2023-04-06T00:45:06;6.65;;;4.53;;
31680;SDS011;18281;51.364;9.566;2023-04-06T00:47:32;6.28;;;4.25;;
31680;SDS011;18281;51.364;9.566;2023-04-06T00:49:58;5.20;;;3.85;;
31680;SDS011;18281;51.364;9.566;2023-04-06T00:52:23;6.63;;;4.05;;
31680;SDS011;18281;51.364;9.566;2023-04-06T00:54:49;4.40;;;3.70;;
31680;SDS011;18281;51.364;9.566;2023-04-06T00:57:15;8.05;;;4.45;;
31680;SDS011;18281;51.364;9.566;2023-04-06T00:59:42;6.90;;;4.38;;
31680;SDS011;18281;51.364;9.566;2023-04-06T01:02:08;4.50;;;4.00;;
31680;SDS011;18281;51.364;9.566;2023-04-06T01:04:33;5.47;;;3.85;;
31680;SDS011;18281;51.364;9.566;2023-04-06T01:06:59;6.40;;;3.95;;
31680;SDS011;18281;51.364;9.566;2023-04-06T01:09:26;7.45;;;4.07;;
31680;SDS011;18281;51.364;9.566;2023-04-06T01:11:53;7.90;;;4.82;;
31680;SDS011;18281;51.364;9.566;2023-04-06T01:14:18;5.78;;;4.35;;
31680;SDS011;18281;51.364;9.566;2023-04-06T01:16:44;6.32;;;4.10;;
31680;SDS011;18281;51.364;9.566;2023-04-06T01:19:13;7.47;;;4.28;;
31680;SDS011;18281;51.364;9.566;2023-04-06T01:21:39;6.28;;;4.30;;
31680;SDS011;18281;51.364;9.566;2023-04-06T01:24:06;5.38;;;4.18;;
31680;SDS011;18281;51.364;9.566;2023-04-06T01:26:32;4.20;;;3.63;;
31680;SDS011;18281;51.364;9.566;2023-04-06T01:28:59;5.22;;;4.30;;
31680;SDS011;18281;51.364;9.566;2023-04-06T01:31:25;7.15;;;4.60;;
31680;SDS011;18281;51.364;9.566;2023-04-06T01:33:51;7.53;;;4.50;;
31680;SDS011;18281;51.364;9.566;2023-04-06T01:36:17;6.45;;;4.40;;
31680;SDS011;18281;51.364;9.566;2023-04-06T01:38:44;7.25;;;4.13;;
31680;SDS011;18281;51.364;9.566;2023-04-06T01:41:10;6.45;;;4.22;;
31680;SDS011;18281;51.364;9.566;2023-04-06T01:43:35;4.60;;;3.95;;
31680;SDS011;18281;51.364;9.566;2023-04-06T01:46:01;5.68;;;3.85;;
31680;SDS011;18281;51.364;9.566;2023-04-06T01:48:27;5.97;;;4.47;;
31680;SDS011;18281;51.364;9.566;2023-04-06T01:50:53;7.20;;;4.72;;
31680;SDS011;18281;51.364;9.566;2023-04-06T01:53:19;7.75;;;4.70;;
31680;SDS011;18281;51.364;9.566;2023-04-06T01:55:44;6.60;;;4.47;;
31680;SDS011;18281;51.364;9.566;2023-04-06T01:58:10;6.72;;;4.15;;
31680;SDS011;18281;51.364;9.566;2023-04-06T02:00:36;5.80;;;4.00;;
31680;SDS011;18281;51.364;9.566;2023-04-06T02:03:01;10.50;;;4.30;;
31680;SDS011;18281;51.364;9.566;2023-04-06T02:05:28;5.13;;;3.88;;
31680;SDS011;18281;51.364;9.566;2023-04-06T02:07:54;6.10;;;4.25;;
31680;SDS011;18281;51.364;9.566;2023-04-06T02:10:20;5.20;;;4.03;;
31680;SDS011;18281;51.364;9.566;2023-04-06T02:12:45;6.07;;;4.18;;
31680;SDS011;18281;51.364;9.566;2023-04-06T02:15:11;7.18;;;4.40;;
31680;SDS011;18281;51.364;9.566;2023-04-06T02:17:38;4.82;;;4.15;;
31680;SDS011;18281;51.364;9.566;2023-04-06T02:20:04;6.60;;;4.43;;
31680;SDS011;18281;51.364;9.566;2023-04-06T02:22:30;6.47;;;4.07;;
31680;SDS011;18281;51.364;9.566;2023-04-06T02:24:56;6.68;;;3.50;;
31680;SDS011;18281;51.364;9.566;2023-04-06T02:27:21;6.50;;;3.72;;
31680;SDS011;18281;51.364;9.566;2023-04-06T02:29:46;6.00;;;4.15;;
31680;SDS011;18281;51.364;9.566;2023-04-06T02:32:12;7.50;;;3.95;;
31680;SDS011;18281;51.364;9.566;2023-04-06T02:34:37;6.90;;;4.32;;
31680;SDS011;18281;51.364;9.566;2023-04-06T02:37:03;5.68;;;3.97;;
31680;SDS011;18281;51.364;9.566;2023-04-06T02:39:29;4.30;;;3.90;;
31680;SDS011;18281;51.364;9.566;2023-04-06T02:41:54;4.70;;;3.90;;
31680;SDS011;18281;51.364;9.566;2023-04-06T02:44:21;4.40;;;4.00;;
31680;SDS011;18281;51.364;9.566;2023-04-06T02:46:46;4.85;;;3.83;;
31680;SDS011;18281;51.364;9.566;2023-04-06T02:49:12;5.07;;;3.92;;
31680;SDS011;18281;51.364;9.566;2023-04-06T02:51:37;4.25;;;3.80;;
31680;SDS011;18281;51.364;9.566;2023-04-06T02:54:03;4.70;;;3.80;;
31680;SDS011;18281;51.364;9.566;2023-04-06T02:56:28;5.20;;;4.20;;
31680;SDS011;18281;51.364;9.566;2023-04-06T02:58:54;6.03;;;4.25;;
31680;SDS011;18281;51.364;9.566;2023-04-06T03:01:19;8.27;;;4.13;;
31680;SDS011;18281;51.364;9.566;2023-04-06T03:03:45;7.78;;;4.18;;
31680;SDS011;18281;51.364;9.566;2023-04-06T03:06:11;5.75;;;3.90;;
31680;SDS011;18281;51.364;9.566;2023-04-06T03:08:36;6.07;;;3.95;;
31680;SDS011;18281;51.364;9.566;2023-04-06T03:11:02;5.35;;;4.00;;
31680;SDS011;18281;51.364;9.566;2023-04-06T03:13:29;4.60;;;4.18;;
31680;SDS011;18281;51.364;9.566;2023-04-06T03:15:54;4.75;;;3.92;;
31680;SDS011;18281;51.364;9.566;2023-04-06T03:18:23;4.72;;;4.22;;
31680;SDS011;18281;51.364;9.566;2023-04-06T03:20:50;6.93;;;4.18;;
31680;SDS011;18281;51.364;9.566;2023-04-06T03:23:16;7.00;;;3.63;;
31680;SDS011;18281;51.364;9.566;2023-04-06T03:25:42;4.97;;;3.97;;
31680;SDS011;18281;51.364;9.566;2023-04-06T03:28:10;6.63;;;4.43;;
31680;SDS011;18281;51.364;9.566;2023-04-06T03:30:36;6.85;;;4.07;;
31680;SDS011;18281;51.364;9.566;2023-04-06T03:33:02;5.80;;;3.97;;
31680;SDS011;18281;51.364;9.566;2023-04-06T03:35:27;5.80;;;4.07;;
31680;SDS011;18281;51.364;9.566;2023-04-06T03:37:52;5.85;;;4.32;;
31680;SDS011;18281;51.364;9.566;2023-04-06T03:40:18;8.32;;;4.63;;
31680;SDS011;18281;51.364;9.566;2023-04-06T03:42:45;7.35;;;4.30;;
31680;SDS011;18281;51.364;9.566;2023-04-06T03:45:10;8.00;;;4.03;;
31680;SDS011;18281;51.364;9.566;2023-04-06T03:47:37;6.40;;;5.50;;
31680;SDS011;18281;51.364;9.566;2023-04-06T03:50:03;7.13;;;4.47;;
31680;SDS011;18281;51.364;9.566;2023-04-06T03:52:28;5.15;;;4.05;;
31680;SDS011;18281;51.364;9.566;2023-04-06T03:54:54;6.18;;;3.88;;
31680;SDS011;18281;51.364;9.566;2023-04-06T03:57:19;5.43;;;4.05;;
31680;SDS011;18281;51.364;9.566;2023-04-06T03:59:45;5.70;;;4.50;;
31680;SDS011;18281;51.364;9.566;2023-04-06T04:02:11;6.32;;;4.05;;
31680;SDS011;18281;51.364;9.566;2023-04-06T04:04:36;5.30;;;4.10;;
31680;SDS011;18281;51.364;9.566;2023-04-06T04:07:02;7.22;;;4.35;;
31680;SDS011;18281;51.364;9.566;2023-04-06T04:09:27;6.38;;;4.55;;
31680;SDS011;18281;51.364;9.566;2023-04-06T04:11:52;4.57;;;4.18;;
31680;SDS011;18281;51.364;9.566;2023-04-06T04:14:18;6.95;;;4.68;;
31680;SDS011;18281;51.364;9.566;2023-04-06T04:16:43;7.25;;;4.30;;
31680;SDS011;18281;51.364;9.566;2023-04-06T04:19:10;5.40;;;4.00;;
31680;SDS011;18281;51.364;9.566;2023-04-06T04:21:41;7.18;;;4.55;;
31680;SDS011;18281;51.364;9.566;2023-04-06T04:24:09;8.55;;;4.85;;
31680;SDS011;18281;51.364;9.566;2023-04-06T04:26:35;9.07;;;4.57;;
31680;SDS011;18281;51.364;9.566;2023-04-06T04:29:01;6.63;;;4.50;;
31680;SDS011;18281;51.364;9.566;2023-04-06T04:31:26;6.47;;;4.70;;
31680;SDS011;18281;51.364;9.566;2023-04-06T04:33:52;7.13;;;4.57;;
31680;SDS011;18281;51.364;9.566;2023-04-06T04:36:17;8.32;;;4.57;;
31680;SDS011;18281;51.364;9.566;2023-04-06T04:38:43;22.60;;;10.43;;
31680;SDS011;18281;51.364;9.566;2023-04-06T04:41:08;19.40;;;10.77;;
31680;SDS011;18281;51.364;9.566;2023-04-06T04:43:34;15.70;;;9.65;;
31680;SDS011;18281;51.364;9.566;2023-04-06T04:45:59;12.98;;;7.43;;
31680;SDS011;18281;51.364;9.566;2023-04-06T04:48:25;10.73;;;6.65;;
31680;SDS011;18281;51.364;9.566;2023-04-06T04:50:51;10.13;;;6.00;;
31680;SDS011;18281;51.364;9.566;2023-04-06T04:53:16;8.95;;;5.60;;
31680;SDS011;18281;51.364;9.566;2023-04-06T04:55:42;9.95;;;5.88;;
31680;SDS011;18281;51.364;9.566;2023-04-06T04:58:07;6.35;;;5.00;;
31680;SDS011;18281;51.364;9.566;2023-04-06T05:00:34;6.50;;;4.97;;
31680;SDS011;18281;51.364;9.566;2023-04-06T05:03:00;6.97;;;4.65;;
31680;SDS011;18281;51.364;9.566;2023-04-06T05:05:25;9.88;;;4.70;;
31680;SDS011;18281;51.364;9.566;2023-04-06T05:07:51;5.13;;;4.45;;
31680;SDS011;18281;51.364;9.566;2023-04-06T05:10:16;7.90;;;5.03;;
31680;SDS011;18281;51.364;9.566;2023-04-06T05:12:45;6.53;;;4.43;;
31680;SDS011;18281;51.364;9.566;2023-04-06T05:15:11;7.75;;;4.57;;
31680;SDS011;18281;51.364;9.566;2023-04-06T05:17:36;5.70;;;4.80;;
31680;SDS011;18281;51.364;9.566;2023-04-06T05:20:02;5.55;;;4.47;;
31680;SDS011;18281;51.364;9.566;2023-04-06T05:22:27;8.10;;;5.00;;
31680;SDS011;18281;51.364;9.566;2023-04-06T05:24:53;6.60;;;5.10;;
31680;SDS011;18281;51.364;9.566;2023-04-06T05:27:18;5.05;;;4.40;;
31680;SDS011;18281;51.364;9.566;2023-04-06T05:29:44;6.90;;;5.22;;
31680;SDS011;18281;51.364;9.566;2023-04-06T05:32:10;6.93;;;5.07;;
31680;SDS011;18281;51.364;9.566;2023-04-06T05:34:36;7.40;;;5.00;;
31680;SDS011;18281;51.364;9.566;2023-04-06T05:37:02;6.40;;;4.50;;
31680;SDS011;18281;51.364;9.566;2023-04-06T05:39:27;5.95;;;4.88;;
31680;SDS011;18281;51.364;9.566;2023-04-06T05:41:53;7.53;;;5.00;;
31680;SDS011;18281;51.364;9.566;2023-04-06T05:44:18;10.52;;;4.65;;
31680;SDS011;18281;51.364;9.566;2023-04-06T05:46:44;9.95;;;5.85;;
31680;SDS011;18281;51.364;9.566;2023-04-06T05:49:09;8.00;;;5.20;;
31680;SDS011;18281;51.364;9.566;2023-04-06T05:51:35;7.60;;;5.35;;
31680;SDS011;18281;51.364;9.566;2023-04-06T05:54:00;10.10;;;5.53;;
31680;SDS011;18281;51.364;9.566;2023-04-06T05:56:26;6.43;;;5.15;;
31680;SDS011;18281;51.364;9.566;2023-04-06T05:58:51;9.02;;;5.38;;
31680;SDS011;18281;51.364;9.566;2023-04-06T06:01:17;9.18;;;5.60;;
31680;SDS011;18281;51.364;9.566;2023-04-06T06:03:42;8.75;;;5.43;;
31680;SDS011;18281;51.364;9.566;2023-04-06T06:06:08;7.18;;;5.30;;
31680;SDS011;18281;51.364;9.566;2023-04-06T06:08:33;8.38;;;5.43;;
31680;SDS011;18281;51.364;9.566;2023-04-06T06:10:59;6.30;;;4.90;;
31680;SDS011;18281;51.364;9.566;2023-04-06T06:13:25;9.75;;;5.85;;
31680;SDS011;18281;51.364;9.566;2023-04-06T06:15:50;13.80;;;6.40;;
31680;SDS011;18281;51.364;9.566;2023-04-06T06:18:16;13.48;;;8.07;;
31680;SDS011;18281;51.364;9.566;2023-04-06T06:20:41;12.77;;;9.73;;
31680;SDS011;18281;51.364;9.566;2023-04-06T06:23:07;14.93;;;9.45;;
31680;SDS011;18281;51.364;9.566;2023-04-06T06:25:32;13.40;;;8.90;;
31680;SDS011;18281;51.364;9.566;2023-04-06T06:27:58;14.65;;;9.00;;
31680;SDS011;18281;51.364;9.566;2023-04-06T06:30:24;11.25;;;8.40;;
31680;SDS011;18281;51.364;9.566;2023-04-06T06:32:51;14.60;;;10.10;;
31680;SDS011;18281;51.364;9.566;2023-04-06T06:35:17;17.10;;;10.68;;
31680;SDS011;18281;51.364;9.566;2023-04-06T06:37:42;13.73;;;10.20;;
31680;SDS011;18281;51.364;9.566;2023-04-06T06:40:08;12.43;;;8.20;;
31680;SDS011;18281;51.364;9.566;2023-04-06T06:42:35;11.18;;;8.13;;
31680;SDS011;18281;51.364;9.566;2023-04-06T06:45:01;9.68;;;7.65;;
31680;SDS011;18281;51.364;9.566;2023-04-06T06:47:26;11.00;;;7.45;;
31680;SDS011;18281;51.364;9.566;2023-04-06T06:49:52;9.07;;;7.07;;
31680;SDS011;18281;51.364;9.566;2023-04-06T06:52:17;10.68;;;7.20;;
31680;SDS011;18281;51.364;9.566;2023-04-06T06:54:42;9.63;;;6.30;;
31680;SDS011;18281;51.364;9.566;2023-04-06T06:57:08;13.27;;;6.60;;
31680;SDS011;18281;51.364;9.566;2023-04-06T06:59:34;9.30;;;6.38;;
31680;SDS011;18281;51.364;9.566;2023-04-06T07:01:59;9.63;;;6.18;;
31680;SDS011;18281;51.364;9.566;2023-04-06T07:04:25;8.23;;;5.28;;
31680;SDS011;18281;51.364;9.566;2023-04-06T07:06:50;7.65;;;6.13;;
31680;SDS011;18281;51.364;9.566;2023-04-06T07:09:17;14.35;;;5.55;;
31680;SDS011;18281;51.364;9.566;2023-04-06T07:11:43;7.63;;;5.50;;
31680;SDS011;18281;51.364;9.566;2023-04-06T07:14:08;9.10;;;5.20;;
31680;SDS011;18281;51.364;9.566;2023-04-06T07:16:34;9.80;;;5.45;;
31680;SDS011;18281;51.364;9.566;2023-04-06T07:19:00;9.82;;;4.93;;
31680;SDS011;18281;51.364;9.566;2023-04-06T07:21:25;6.97;;;5.13;;
31680;SDS011;18281;51.364;9.566;2023-04-06T07:23:51;7.15;;;4.82;;
31680;SDS011;18281;51.364;9.566;2023-04-06T07:26:17;5.90;;;4.70;;
31680;SDS011;18281;51.364;9.566;2023-04-06T07:28:42;7.72;;;4.25;;
31680;SDS011;18281;51.364;9.566;2023-04-06T07:31:08;5.43;;;4.10;;
31680;SDS011;18281;51.364;9.566;2023-04-06T07:33:33;5.97;;;4.18;;
31680;SDS011;18281;51.364;9.566;2023-04-06T07:35:59;6.65;;;4.10;;
31680;SDS011;18281;51.364;9.566;2023-04-06T07:38:24;7.85;;;4.28;;
31680;SDS011;18281;51.364;9.566;2023-04-06T07:40:50;6.75;;;5.25;;
31680;SDS011;18281;51.364;9.566;2023-04-06T07:43:15;10.00;;;5.28;;
31680;SDS011;18281;51.364;9.566;2023-04-06T07:45:41;6.22;;;4.70;;
31680;SDS011;18281;51.364;9.566;2023-04-06T07:48:06;7.28;;;5.13;;
31680;SDS011;18281;51.364;9.566;2023-04-06T07:50:32;9.10;;;5.07;;
31680;SDS011;18281;51.364;9.566;2023-04-06T07:52:57;8.35;;;5.60;;
31680;SDS011;18281;51.364;9.566;2023-04-06T07:55:23;10.27;;;5.00;;
31680;SDS011;18281;51.364;9.566;2023-04-06T07:57:48;5.80;;;5.00;;
31680;SDS011;18281;51.364;9.566;2023-04-06T08:00:15;7.68;;;4.78;;
31680;SDS011;18281;51.364;9.566;2023-04-06T08:02:44;8.30;;;4.95;;
31680;SDS011;18281;51.364;9.566;2023-04-06T08:05:09;6.63;;;4.67;;
31680;SDS011;18281;51.364;9.566;2023-04-06T08:07:35;7.57;;;5.20;;
31680;SDS011;18281;51.364;9.566;2023-04-06T08:10:01;11.07;;;5.60;;
31680;SDS011;18281;51.364;9.566;2023-04-06T08:12:27;11.70;;;5.03;;
31680;SDS011;18281;51.364;9.566;2023-04-06T08:14:52;8.52;;;4.80;;
31680;SDS011;18281;51.364;9.566;2023-04-06T08:17:17;8.45;;;5.10;;
31680;SDS011;18281;51.364;9.566;2023-04-06T08:19:43;10.57;;;5.40;;
31680;SDS011;18281;51.364;9.566;2023-04-06T08:22:09;6.10;;;4.68;;
31680;SDS011;18281;51.364;9.566;2023-04-06T08:24:35;8.63;;;5.45;;
31680;SDS011;18281;51.364;9.566;2023-04-06T08:27:00;8.80;;;4.75;;
31680;SDS011;18281;51.364;9.566;2023-04-06T08:29:26;6.40;;;5.00;;
31680;SDS011;18281;51.364;9.566;2023-04-06T08:31:51;7.00;;;4.75;;
31680;SDS011;18281;51.364;9.566;2023-04-06T08:34:17;10.50;;;5.18;;
31680;SDS011;18281;51.364;9.566;2023-04-06T08:36:42;9.32;;;5.38;;
31680;SDS011;18281;51.364;9.566;2023-04-06T08:39:08;9.82;;;6.20;;
31680;SDS011;18281;51.364;9.566;2023-04-06T08:41:34;10.65;;;5.60;;
31680;SDS011;18281;51.364;9.566;2023-04-06T08:44:00;9.25;;;5.53;;
31680;SDS011;18281;51.364;9.566;2023-04-06T08:46:28;9.30;;;5.50;;
31680;SDS011;18281;51.364;9.566;2023-04-06T08:48:56;9.38;;;6.25;;
31680;SDS011;18281;51.364;9.566;2023-04-06T08:51:23;8.43;;;5.65;;
31680;SDS011;18281;51.364;9.566;2023-04-06T08:53:51;8.25;;;5.72;;
31680;SDS011;18281;51.364;9.566;2023-04-06T08:56:19;13.73;;;5.85;;
31680;SDS011;18281;51.364;9.566;2023-04-06T08:58:46;9.25;;;5.60;;
31680;SDS011;18281;51.364;9.566;2023-04-06T09:01:13;11.95;;;6.40;;
31680;SDS011;18281;51.364;9.566;2023-04-06T09:03:41;8.90;;;5.68;;
31680;SDS011;18281;51.364;9.566;2023-04-06T09:06:08;7.72;;;5.45;;
31680;SDS011;18281;51.364;9.566;2023-04-06T09:08:34;11.32;;;5.68;;
31680;SDS011;18281;51.364;9.566;2023-04-06T09:11:01;12.88;;;5.93;;
31680;SDS011;18281;51.364;9.566;2023-04-06T09:13:29;12.82;;;5.75;;
31680;SDS011;18281;51.364;9.566;2023-04-06T09:16:02;8.70;;;5.13;;
31680;SDS011;18281;51.364;9.566;2023-04-06T09:18:30;10.98;;;5.20;;
31680;SDS011;18281;51.364;9.566;2023-04-06T09:21:03;7.60;;;5.10;;
31680;SDS011;18281;51.364;9.566;2023-04-06T09:23:30;8.43;;;4.50;;
31680;SDS011;18281;51.364;9.566;2023-04-06T09:26:15;12.57;;;5.03;;
31680;SDS011;18281;51.364;9.566;2023-04-06T09:28:43;12.40;;;6.72;;
31680;SDS011;18281;51.364;9.566;2023-04-06T09:31:22;13.80;;;6.30;;
31680;SDS011;18281;51.364;9.566;2023-04-06T09:33:49;11.52;;;6.00;;
31680;SDS011;18281;51.364;9.566;2023-04-06T09:36:17;9.80;;;5.85;;
31680;SDS011;18281;51.364;9.566;2023-04-06T09:38:55;10.80;;;6.22;;
31680;SDS011;18281;51.364;9.566;2023-04-06T09:41:26;8.75;;;5.45;;
31680;SDS011;18281;51.364;9.566;2023-04-06T09:44:03;9.57;;;5.53;;
31680;SDS011;18281;51.364;9.566;2023-04-06T09:46:33;9.32;;;5.38;;
31680;SDS011;18281;51.364;9.566;2023-04-06T09:49:03;20.48;;;5.35;;
31680;SDS011;18281;51.364;9.566;2023-04-06T09:54:05;7.78;;;4.88;;
31680;SDS011;18281;51.364;9.566;2023-04-06T09:56:39;6.43;;;4.47;;
31680;SDS011;18281;51.364;9.566;2023-04-06T09:59:16;9.57;;;4.75;;
31680;SDS011;18281;51.364;9.566;2023-04-06T10:01:46;8.48;;;4.97;;
31680;SDS011;18281;51.364;9.566;2023-04-06T10:06:57;9.05;;;4.90;;
31680;SDS011;18281;51.364;9.566;2023-04-06T10:09:25;6.03;;;4.75;;
31680;SDS011;18281;51.364;9.566;2023-04-06T10:12:00;8.90;;;4.97;;
31680;SDS011;18281;51.364;9.566;2023-04-06T10:14:27;6.97;;;4.93;;
31680;SDS011;18281;51.364;9.566;2023-04-06T10:16:52;8.13;;;4.68;;
31680;SDS011;18281;51.364;9.566;2023-04-06T10:19:23;8.52;;;5.22;;
31680;SDS011;18281;51.364;9.566;2023-04-06T10:21:53;6.32;;;4.32;;
31680;SDS011;18281;51.364;9.566;2023-04-06T10:24:23;7.40;;;4.95;;
31680;SDS011;18281;51.364;9.566;2023-04-06T10:26:58;7.43;;;4.60;;
31680;SDS011;18281;51.364;9.566;2023-04-06T10:29:26;12.75;;;5.15;;
31680;SDS011;18281;51.364;9.566;2023-04-06T10:31:52;10.65;;;5.03;;
31680;SDS011;18281;51.364;9.566;2023-04-06T10:34:17;10.38;;;5.07;;
31680;SDS011;18281;51.364;9.566;2023-04-06T10:36:43;14.32;;;6.45;;
31680;SDS011;18281;51.364;9.566;2023-04-06T10:39:11;8.27;;;5.38;;
31680;SDS011;18281;51.364;9.566;2023-04-06T10:41:40;8.75;;;5.68;;
31680;SDS011;18281;51.364;9.566;2023-04-06T10:44:21;7.45;;;4.80;;
31680;SDS011;18281;51.364;9.566;2023-04-06T10:46:57;9.80;;;5.22;;
31680;SDS011;18281;51.364;9.566;2023-04-06T10:49:25;9.00;;;4.82;;
31680;SDS011;18281;51.364;9.566;2023-04-06T10:51:52;10.70;;;5.68;;
31680;SDS011;18281;51.364;9.566;2023-04-06T10:54:19;7.60;;;5.00;;
31680;SDS011;18281;51.364;9.566;2023-04-06T10:56:46;6.03;;;4.70;;
31680;SDS011;18281;51.364;9.566;2023-04-06T10:59:12;13.35;;;6.20;;
31680;SDS011;18281;51.364;9.566;2023-04-06T11:01:38;8.43;;;5.05;;
31680;SDS011;18281;51.364;9.566;2023-04-06T11:04:09;9.27;;;5.75;;
31680;SDS011;18281;51.364;9.566;2023-04-06T11:09:04;11.20;;;5.70;;
31680;SDS011;18281;51.364;9.566;2023-04-06T11:11:29;10.40;;;6.93;;
31680;SDS011;18281;51.364;9.566;2023-04-06T11:13:55;11.32;;;6.40;;
31680;SDS011;18281;51.364;9.566;2023-04-06T11:16:23;8.70;;;5.97;;
31680;SDS011;18281;51.364;9.566;2023-04-06T11:21:16;11.35;;;6.88;;
31680;SDS011;18281;51.364;9.566;2023-04-06T11:23:42;12.95;;;7.28;;
31680;SDS011;18281;51.364;9.566;2023-04-06T11:26:11;10.63;;;6.63;;
31680;SDS011;18281;51.364;9.566;2023-04-06T11:28:39;15.60;;;7.53;;
31680;SDS011;18281;51.364;9.566;2023-04-06T11:31:06;11.35;;;7.30;;
31680;SDS011;18281;51.364;9.566;2023-04-06T11:33:37;11.48;;;7.68;;
31680;SDS011;18281;51.364;9.566;2023-04-06T11:36:03;9.80;;;7.20;;
31680;SDS011;18281;51.364;9.566;2023-04-06T11:38:32;11.63;;;6.97;;
31680;SDS011;18281;51.364;9.566;2023-04-06T11:40:57;11.55;;;7.25;;
31680;SDS011;18281;51.364;9.566;2023-04-06T11:43:27;10.45;;;7.35;;
31680;SDS011;18281;51.364;9.566;2023-04-06T11:45:59;12.27;;;7.10;;
31680;SDS011;18281;51.364;9.566;2023-04-06T11:48:27;8.00;;;6.10;;
31680;SDS011;18281;51.364;9.566;2023-04-06T11:50:59;10.55;;;7.10;;
31680;SDS011;18281;51.364;9.566;2023-04-06T11:53:26;8.95;;;6.50;;
31680;SDS011;18281;51.364;9.566;2023-04-06T11:55:53;10.48;;;6.82;;
31680;SDS011;18281;51.364;9.566;2023-04-06T11:58:18;8.75;;;6.05;;
31680;SDS011;18281;51.364;9.566;2023-04-06T12:00:44;9.60;;;6.70;;
31680;SDS011;18281;51.364;9.566;2023-04-06T12:03:11;12.95;;;6.38;;
31680;SDS011;18281;51.364;9.566;2023-04-06T12:05:37;9.30;;;6.43;;
31680;SDS011;18281;51.364;9.566;2023-04-06T12:08:03;10.57;;;6.93;;
31680;SDS011;18281;51.364;9.566;2023-04-06T12:10:29;10.07;;;6.70;;
31680;SDS011;18281;51.364;9.566;2023-04-06T12:12:55;12.40;;;6.60;;
31680;SDS011;18281;51.364;9.566;2023-04-06T12:15:20;10.95;;;6.55;;
31680;SDS011;18281;51.364;9.566;2023-04-06T12:17:46;14.90;;;7.13;;
31680;SDS011;18281;51.364;9.566;2023-04-06T12:20:12;10.30;;;6.63;;
31680;SDS011;18281;51.364;9.566;2023-04-06T12:22:38;9.13;;;5.70;;
31680;SDS011;18281;51.364;9.566;2023-04-06T12:25:04;8.00;;;5.75;;
31680;SDS011;18281;51.364;9.566;2023-04-06T12:27:31;10.07;;;6.28;;
31680;SDS011;18281;51.364;9.566;2023-04-06T12:29:57;14.20;;;7.10;;
31680;SDS011;18281;51.364;9.566;2023-04-06T12:32:22;10.82;;;6.40;;
31680;SDS011;18281;51.364;9.566;2023-04-06T12:34:48;11.98;;;6.20;;
31680;SDS011;18281;51.364;9.566;2023-04-06T12:37:13;10.60;;;6.50;;
31680;SDS011;18281;51.364;9.566;2023-04-06T12:39:38;8.93;;;6.43;;
31680;SDS011;18281;51.364;9.566;2023-04-06T12:42:04;9.45;;;5.57;;
31680;SDS011;18281;51.364;9.566;2023-04-06T12:44:30;7.07;;;5.30;;
31680;SDS011;18281;51.364;9.566;2023-04-06T12:46:55;9.07;;;5.60;;
31680;SDS011;18281;51.364;9.566;2023-04-06T12:49:21;9.50;;;6.05;;
31680;SDS011;18281;51.364;9.566;2023-04-06T12:51:46;10.45;;;5.47;;
31680;SDS011;18281;51.364;9.566;2023-04-06T12:54:12;8.90;;;5.75;;
31680;SDS011;18281;51.364;9.566;2023-04-06T12:56:37;9.95;;;6.35;;
31680;SDS011;18281;51.364;9.566;2023-04-06T12:59:03;10.45;;;5.68;;
31680;SDS011;18281;51.364;9.566;2023-04-06T13:01:30;9.63;;;5.50;;
31680;SDS011;18281;51.364;9.566;2023-04-06T13:03:56;8.20;;;5.72;;
31680;SDS011;18281;51.364;9.566;2023-04-06T13:06:22;10.15;;;6.43;;
31680;SDS011;18281;51.364;9.566;2023-04-06T13:11:17;6.97;;;4.57;;
31680;SDS011;18281;51.364;9.566;2023-04-06T13:13:45;7.70;;;5.18;;
31680;SDS011;18281;51.364;9.566;2023-04-06T13:16:10;7.50;;;4.82;;
31680;SDS011;18281;51.364;9.566;2023-04-06T13:18:36;7.28;;;4.53;;
31680;SDS011;18281;51.364;9.566;2023-04-06T13:21:03;5.65;;;4.18;;
31680;SDS011;18281;51.364;9.566;2023-04-06T13:23:32;6.68;;;4.13;;
31680;SDS011;18281;51.364;9.566;2023-04-06T13:25:58;6.60;;;4.50;;
31680;SDS011;18281;51.364;9.566;2023-04-06T13:28:25;5.63;;;4.57;;
31680;SDS011;18281;51.364;9.566;2023-04-06T13:30:51;6.60;;;4.70;;
31680;SDS011;18281;51.364;9.566;2023-04-06T13:33:17;6.65;;;3.88;;
31680;SDS011;18281;51.364;9.566;2023-04-06T13:35:45;6.78;;;4.05;;
31680;SDS011;18281;51.364;9.566;2023-04-06T13:38:12;5.68;;;3.90;;
31680;SDS011;18281;51.364;9.566;2023-04-06T13:40:39;8.15;;;3.92;;
31680;SDS011;18281;51.364;9.566;2023-04-06T13:43:05;7.18;;;3.20;;
31680;SDS011;18281;51.364;9.566;2023-04-06T13:45:31;7.75;;;3.78;;
31680;SDS011;18281;51.364;9.566;2023-04-06T13:47:57;10.70;;;3.60;;
31680;SDS011;18281;51.364;9.566;2023-04-06T13:50:22;7.43;;;3.33;;
31680;SDS011;18281;51.364;9.566;2023-04-06T13:52:50;7.47;;;3.90;;
31680;SDS011;18281;51.364;9.566;2023-04-06T13:55:15;11.80;;;3.67;;
31680;SDS011;18281;51.364;9.566;2023-04-06T13:57:41;9.32;;;4.07;;
31680;SDS011;18281;51.364;9.566;2023-04-06T14:00:07;10.95;;;4.53;;
31680;SDS011;18281;51.364;9.566;2023-04-06T14:05:01;6.38;;;3.83;;
31680;SDS011;18281;51.364;9.566;2023-04-06T14:07:28;6.10;;;3.50;;
31680;SDS011;18281;51.364;9.566;2023-04-06T14:09:53;11.20;;;4.35;;
31680;SDS011;18281;51.364;9.566;2023-04-06T14:12:19;7.63;;;3.58;;
31680;SDS011;18281;51.364;9.566;2023-04-06T14:14:45;4.97;;;2.75;;
31680;SDS011;18281;51.364;9.566;2023-04-06T14:17:11;6.03;;;3.30;;
31680;SDS011;18281;51.364;9.566;2023-04-06T14:19:38;7.40;;;4.20;;
31680;SDS011;18281;51.364;9.566;2023-04-06T14:22:04;4.97;;;3.80;;
31680;SDS011;18281;51.364;9.566;2023-04-06T14:24:30;4.65;;;3.50;;
31680;SDS011;18281;51.364;9.566;2023-04-06T14:26:56;8.98;;;4.25;;
31680;SDS011;18281;51.364;9.566;2023-04-06T14:29:21;6.05;;;3.92;;
31680;SDS011;18281;51.364;9.566;2023-04-06T14:31:47;7.05;;;4.25;;
31680;SDS011;18281;51.364;9.566;2023-04-06T14:34:13;10.10;;;3.67;;
31680;SDS011;18281;51.364;9.566;2023-04-06T14:36:40;3.53;;;2.88;;
31680;SDS011;18281;51.364;9.566;2023-04-06T14:39:05;3.60;;;2.65;;
31680;SDS011;18281;51.364;9.566;2023-04-06T14:41:32;7.25;;;3.55;;
31680;SDS011;18281;51.364;9.566;2023-04-06T14:43:58;6.13;;;3.78;;
31680;SDS011;18281;51.364;9.566;2023-04-06T14:46:24;5.35;;;3.80;;
31680;SDS011;18281;51.364;9.566;2023-04-06T14:48:51;7.15;;;4.68;;
31680;SDS011;18281;51.364;9.566;2023-04-06T14:51:19;5.10;;;4.03;;
31680;SDS011;18281;51.364;9.566;2023-04-06T14:53:45;8.68;;;5.65;;
31680;SDS011;18281;51.364;9.566;2023-04-06T14:56:12;8.27;;;5.25;;